createdAt,value
2023-07-07T00:00:45.181Z,1401.00
2023-07-07T00:01:45.238Z,1410.00
2023-07-07T00:02:45.311Z,1438.00
2023-07-07T00:03:45.270Z,1435.00
2023-07-07T00:04:45.234Z,1412.00
2023-07-07T00:05:45.235Z,1409.00
2023-07-07T00:06:45.255Z,1426.00
2023-07-07T00:07:45.234Z,1427.00
2023-07-07T00:08:45.257Z,1418.00
2023-07-07T00:09:45.243Z,1391.00
2023-07-07T00:10:45.246Z,1393.00
2023-07-07T00:11:45.253Z,1395.00
2023-07-07T00:12:45.265Z,1384.00
2023-07-07T00:13:45.288Z,1384.00
2023-07-07T00:14:45.449Z,1397.00
2023-07-07T00:15:45.298Z,1394.00
2023-07-07T00:16:45.342Z,1404.00
2023-07-07T00:17:45.305Z,1395.00
2023-07-07T00:18:45.303Z,1389.00
2023-07-07T00:19:45.341Z,1392.00
2023-07-07T00:20:45.357Z,1390.00
2023-07-07T00:21:45.346Z,1386.00
2023-07-07T00:22:45.320Z,1362.00
2023-07-07T00:23:45.330Z,1373.00
2023-07-07T00:24:45.367Z,1370.00
2023-07-07T00:25:45.342Z,1362.00
2023-07-07T00:26:45.380Z,1357.00
2023-07-07T00:27:45.399Z,1384.00
2023-07-07T00:28:45.408Z,1362.00
2023-07-07T00:29:45.405Z,1379.00
2023-07-07T00:30:45.451Z,1398.00
2023-07-07T00:31:45.436Z,1379.00
2023-07-07T00:32:45.513Z,1379.00
2023-07-07T00:33:45.461Z,1390.00
2023-07-07T00:34:45.472Z,1375.00
2023-07-07T00:35:45.525Z,1363.00
2023-07-07T00:36:45.519Z,1405.00
2023-07-07T00:37:45.520Z,1417.00
2023-07-07T00:38:45.545Z,1394.00
2023-07-07T00:39:45.554Z,1411.00
2023-07-07T00:40:45.557Z,1415.00
2023-07-07T00:41:45.558Z,1394.00
2023-07-07T00:42:45.569Z,1372.00
2023-07-07T00:43:45.588Z,1379.00
2023-07-07T00:44:45.576Z,1396.00
2023-07-07T00:45:45.602Z,1377.00
2023-07-07T00:46:45.605Z,1388.00
2023-07-07T00:47:45.721Z,1388.00
2023-07-07T00:48:45.621Z,1358.00
2023-07-07T00:49:45.641Z,1396.00
2023-07-07T00:50:45.646Z,1367.00
2023-07-07T00:51:45.658Z,1371.00
2023-07-07T00:52:45.686Z,1375.00
2023-07-07T00:53:45.725Z,1365.00
2023-07-07T00:54:45.695Z,1377.00
2023-07-07T00:55:45.741Z,1373.00
2023-07-07T00:56:45.747Z,1384.00
2023-07-07T00:57:45.756Z,1376.00
2023-07-07T00:58:45.748Z,1361.00
2023-07-07T00:59:45.784Z,1329.00
2023-07-07T01:00:45.809Z,1321.00
2023-07-07T01:01:45.855Z,1316.00
2023-07-07T01:02:45.871Z,1328.00
2023-07-07T01:03:45.871Z,1319.00
2023-07-07T01:04:45.924Z,1284.00
2023-07-07T01:05:45.915Z,1280.00
2023-07-07T01:06:45.910Z,1304.00
2023-07-07T01:07:45.922Z,1310.00
2023-07-07T01:08:45.969Z,1303.00
2023-07-07T01:09:46.006Z,1310.00
2023-07-07T01:10:45.992Z,1305.00
2023-07-07T01:11:46.063Z,1343.00
2023-07-07T01:12:46.079Z,1369.00
2023-07-07T01:13:46.125Z,1332.00
2023-07-07T01:14:46.091Z,1342.00
2023-07-07T01:15:46.140Z,1359.00
2023-07-07T01:16:46.210Z,1332.00
2023-07-07T01:17:46.206Z,1308.00
2023-07-07T01:18:46.215Z,1304.00
2023-07-07T01:19:46.259Z,1277.00
2023-07-07T01:20:46.257Z,1289.00
2023-07-07T01:21:46.294Z,1286.00
2023-07-07T01:22:46.332Z,1274.00
2023-07-07T01:23:46.311Z,1302.00
2023-07-07T01:24:46.334Z,1310.00
2023-07-07T01:25:46.352Z,1309.00
2023-07-07T01:26:46.401Z,1287.00
2023-07-07T01:27:46.415Z,1278.00
2023-07-07T01:28:46.450Z,1274.00
2023-07-07T01:29:46.486Z,1298.00
2023-07-07T01:30:46.547Z,1303.00
2023-07-07T01:31:46.572Z,1313.00
2023-07-07T01:32:46.603Z,1297.00
2023-07-07T01:33:46.574Z,1279.00
2023-07-07T01:34:46.606Z,1271.00
2023-07-07T01:35:46.633Z,1283.00
2023-07-07T01:36:46.653Z,1284.00
2023-07-07T01:37:46.695Z,1275.00
2023-07-07T01:38:46.713Z,1260.00
2023-07-07T01:39:46.736Z,1259.00
2023-07-07T01:40:46.789Z,1251.00
2023-07-07T01:41:46.790Z,1275.00
2023-07-07T01:42:46.788Z,1244.00
2023-07-07T01:43:46.822Z,1235.00
2023-07-07T01:44:46.820Z,1245.00
2023-07-07T01:45:46.885Z,1232.00
2023-07-07T01:46:46.912Z,1225.00
2023-07-07T01:47:46.938Z,1214.00
2023-07-07T01:48:46.933Z,1196.00
2023-07-07T01:49:46.983Z,1200.00
2023-07-07T01:50:46.994Z,1196.00
2023-07-07T01:51:47.054Z,1159.00
2023-07-07T01:52:47.052Z,1179.00
2023-07-07T01:53:47.079Z,1160.00
2023-07-07T01:54:47.154Z,1177.00
2023-07-07T01:55:47.165Z,1164.00
2023-07-07T01:56:47.199Z,1162.00
2023-07-07T01:57:47.228Z,1135.00
2023-07-07T01:58:47.260Z,1157.00
2023-07-07T01:59:47.312Z,1147.00
2023-07-07T02:00:47.347Z,1156.00
2023-07-07T02:01:47.547Z,1159.00
2023-07-07T02:02:47.457Z,1131.00
2023-07-07T02:03:47.466Z,1144.00
2023-07-07T02:04:47.571Z,1129.00
2023-07-07T02:05:47.571Z,1136.00
2023-07-07T02:06:47.597Z,1132.00
2023-07-07T02:07:47.729Z,1131.00
2023-07-07T02:08:47.695Z,1124.00
2023-07-07T02:09:47.763Z,1122.00
2023-07-07T02:10:47.838Z,1108.00
2023-07-07T02:11:47.847Z,1113.00
2023-07-07T02:12:47.887Z,1107.00
2023-07-07T02:13:48.004Z,1111.00
2023-07-07T02:14:47.970Z,1106.00
2023-07-07T02:15:48.057Z,1103.00
2023-07-07T02:16:48.114Z,1112.00
2023-07-07T02:17:48.262Z,1107.00
2023-07-07T02:18:48.169Z,1085.00
2023-07-07T02:19:48.261Z,1087.00
2023-07-07T02:20:48.304Z,1102.00
2023-07-07T02:21:48.359Z,1098.00
2023-07-07T02:22:48.383Z,1100.00
2023-07-07T02:23:48.438Z,1093.00
2023-07-07T02:24:48.481Z,1079.00
2023-07-07T02:25:48.538Z,1084.00
2023-07-07T02:26:48.601Z,1086.00
2023-07-07T02:27:48.658Z,1081.00
2023-07-07T02:28:48.697Z,1073.00
2023-07-07T02:29:48.719Z,1070.00
2023-07-07T02:30:48.858Z,1072.00
2023-07-07T02:31:49.218Z,1063.00
2023-07-07T02:32:48.937Z,1063.00
2023-07-07T02:33:48.944Z,1069.00
2023-07-07T02:34:49.281Z,1064.00
2023-07-07T02:35:49.062Z,1059.00
2023-07-07T02:36:49.117Z,1057.00
2023-07-07T02:37:49.195Z,1060.00
2023-07-07T02:38:49.273Z,1063.00
2023-07-07T02:39:49.306Z,1063.00
2023-07-07T02:40:49.392Z,1064.00
2023-07-07T02:41:49.437Z,1063.00
2023-07-07T02:42:49.488Z,1063.00
2023-07-07T02:43:49.534Z,1066.00
2023-07-07T02:44:49.592Z,1068.00
2023-07-07T02:45:49.658Z,1077.00
2023-07-07T02:46:49.748Z,1071.00
2023-07-07T02:47:49.795Z,1068.00
2023-07-07T02:48:49.816Z,1067.00
2023-07-07T02:49:49.876Z,1068.00
2023-07-07T02:50:49.911Z,1066.00
2023-07-07T02:51:49.998Z,1073.00
2023-07-07T02:52:50.059Z,1066.00
2023-07-07T02:53:50.116Z,1072.00
2023-07-07T02:54:50.180Z,1069.00
2023-07-07T02:55:50.291Z,1071.00
2023-07-07T02:56:50.246Z,1070.00
2023-07-07T02:57:50.339Z,1060.00
2023-07-07T02:58:50.370Z,1066.00
2023-07-07T02:59:50.467Z,1061.00
2023-07-07T03:00:50.534Z,1060.00
2023-07-07T03:01:50.558Z,1059.00
2023-07-07T03:02:50.664Z,1063.00
2023-07-07T03:03:50.742Z,1071.00
2023-07-07T03:04:50.731Z,1063.00
2023-07-07T03:05:50.795Z,1075.00
2023-07-07T03:06:50.849Z,1070.00
2023-07-07T03:07:50.928Z,1076.00
2023-07-07T03:08:50.996Z,1070.00
2023-07-07T03:09:51.076Z,1068.00
2023-07-07T03:10:51.095Z,1066.00
2023-07-07T03:11:51.192Z,1067.00
2023-07-07T03:12:51.232Z,1071.00
2023-07-07T03:13:51.331Z,1068.00
2023-07-07T03:14:51.358Z,1063.00
2023-07-07T03:15:51.391Z,1066.00
2023-07-07T03:16:51.553Z,1070.00
2023-07-07T03:17:51.603Z,1055.00
2023-07-07T03:18:51.573Z,1064.00
2023-07-07T03:19:51.649Z,1066.00
2023-07-07T03:20:51.704Z,1070.00
2023-07-07T03:21:51.781Z,1072.00
2023-07-07T03:22:51.810Z,1068.00
2023-07-07T03:23:51.872Z,1066.00
2023-07-07T03:24:51.946Z,1075.00
2023-07-07T03:25:51.994Z,1073.00
2023-07-07T03:26:52.022Z,1072.00
2023-07-07T03:27:52.091Z,1074.00
2023-07-07T03:28:52.153Z,1075.00
2023-07-07T03:29:52.193Z,1068.00
2023-07-07T03:30:52.321Z,1066.00
2023-07-07T03:31:52.320Z,1059.00
2023-07-07T03:32:52.448Z,1072.00
2023-07-07T03:33:52.475Z,1064.00
2023-07-07T03:34:52.543Z,1051.00
2023-07-07T03:35:52.589Z,1056.00
2023-07-07T03:36:52.660Z,1056.00
2023-07-07T03:37:52.731Z,1058.00
2023-07-07T03:38:52.776Z,1053.00
2023-07-07T03:39:52.821Z,1058.00
2023-07-07T03:40:52.873Z,1057.00
2023-07-07T03:41:52.933Z,1058.00
2023-07-07T03:42:53.002Z,1051.00
2023-07-07T03:43:53.016Z,1048.00
2023-07-07T03:44:53.070Z,1043.00
2023-07-07T03:45:53.108Z,1038.00
2023-07-07T03:46:53.214Z,1037.00
2023-07-07T03:47:53.276Z,1037.00
2023-07-07T03:48:53.227Z,1035.00
2023-07-07T03:49:53.237Z,1036.00
2023-07-07T03:50:53.269Z,1037.00
2023-07-07T03:51:53.311Z,1040.00
2023-07-07T03:52:53.403Z,1035.00
2023-07-07T03:53:53.478Z,1029.00
2023-07-07T03:54:53.529Z,1029.00
2023-07-07T03:55:53.565Z,1027.00
2023-07-07T03:56:53.621Z,1028.00
2023-07-07T03:57:53.682Z,1023.00
2023-07-07T03:58:53.726Z,1021.00
2023-07-07T03:59:53.738Z,1023.00
2023-07-07T04:00:53.793Z,1019.00
2023-07-07T04:01:53.877Z,1014.00
2023-07-07T04:02:54.014Z,1015.00
2023-07-07T04:03:54.149Z,1016.00
2023-07-07T04:04:54.139Z,1016.00
2023-07-07T04:05:53.988Z,1021.00
2023-07-07T04:06:54.017Z,1021.00
2023-07-07T04:07:54.100Z,1012.00
2023-07-07T04:08:54.154Z,1018.00
2023-07-07T04:09:54.182Z,1022.00
2023-07-07T04:10:54.227Z,1024.00
2023-07-07T04:11:54.324Z,1029.00
2023-07-07T04:12:54.387Z,1023.00
2023-07-07T04:13:54.483Z,1022.00
2023-07-07T04:14:54.461Z,1024.00
2023-07-07T04:15:54.481Z,1020.00
2023-07-07T04:16:54.576Z,1024.00
2023-07-07T04:17:54.580Z,1016.00
2023-07-07T04:18:54.581Z,1023.00
2023-07-07T04:19:54.594Z,1021.00
2023-07-07T04:20:54.645Z,1030.00
2023-07-07T04:21:54.664Z,1022.00
2023-07-07T04:22:54.734Z,1025.00
2023-07-07T04:23:54.738Z,1021.00
2023-07-07T04:24:54.742Z,1017.00
2023-07-07T04:25:54.772Z,1022.00
2023-07-07T04:26:54.780Z,1019.00
2023-07-07T04:27:54.806Z,1018.00
2023-07-07T04:28:54.802Z,1019.00
2023-07-07T04:29:54.833Z,1013.00
2023-07-07T04:30:54.895Z,1011.00
2023-07-07T04:31:54.976Z,1010.00
2023-07-07T04:32:54.903Z,1010.00
2023-07-07T04:33:54.883Z,1017.00
2023-07-07T04:34:54.846Z,1013.00
2023-07-07T04:35:54.860Z,1014.00
2023-07-07T04:36:54.832Z,1026.00
2023-07-07T04:37:54.871Z,1023.00
2023-07-07T04:38:54.839Z,1025.00
2023-07-07T04:39:54.875Z,1026.00
2023-07-07T04:40:54.848Z,1032.00
2023-07-07T04:41:54.858Z,1035.00
2023-07-07T04:42:54.864Z,1036.00
2023-07-07T04:43:54.856Z,1053.00
2023-07-07T04:44:54.829Z,1051.00
2023-07-07T04:45:54.900Z,1043.00
2023-07-07T04:46:54.857Z,1040.00
2023-07-07T04:47:54.839Z,1039.00
2023-07-07T04:48:54.845Z,1042.00
2023-07-07T04:49:54.871Z,1035.00
2023-07-07T04:50:54.832Z,1032.00
2023-07-07T04:51:54.829Z,1040.00
2023-07-07T04:52:54.866Z,1042.00
2023-07-07T04:53:54.852Z,1042.00
2023-07-07T04:54:54.871Z,1039.00
2023-07-07T04:55:54.844Z,1038.00
2023-07-07T04:56:54.883Z,1040.00
2023-07-07T04:57:54.848Z,1034.00
2023-07-07T04:58:54.829Z,1032.00
2023-07-07T04:59:54.879Z,1032.00
2023-07-07T05:00:54.851Z,1038.00
2023-07-07T05:01:54.887Z,1024.00
2023-07-07T05:02:54.949Z,1023.00
2023-07-07T05:03:54.896Z,1032.00
2023-07-07T05:04:54.902Z,1034.00
2023-07-07T05:05:54.889Z,1029.00
2023-07-07T05:06:54.910Z,1025.00
2023-07-07T05:07:55.263Z,1029.00
2023-07-07T05:08:54.949Z,1028.00
2023-07-07T05:09:54.903Z,1021.00
2023-07-07T05:10:54.952Z,1008.00
2023-07-07T05:11:54.927Z,1006.00
2023-07-07T05:12:54.949Z,996.00
2023-07-07T05:13:55.134Z,987.00
2023-07-07T05:14:54.927Z,999.00
2023-07-07T05:15:54.963Z,1002.00
2023-07-07T05:16:54.962Z,1002.00
2023-07-07T05:17:55.590Z,1012.00
2023-07-07T05:18:54.933Z,1009.00
2023-07-07T05:19:54.948Z,1017.00
2023-07-07T05:20:54.989Z,1012.00
2023-07-07T05:21:54.970Z,1018.00
2023-07-07T05:22:54.984Z,1023.00
2023-07-07T05:23:55.022Z,1028.00
2023-07-07T05:24:55.029Z,1038.00
2023-07-07T05:25:55.014Z,1032.00
2023-07-07T05:26:55.062Z,1038.00
2023-07-07T05:27:55.077Z,1034.00
2023-07-07T05:28:55.091Z,1035.00
2023-07-07T05:29:55.094Z,1038.00
2023-07-07T05:30:55.087Z,1034.00
2023-07-07T05:31:55.150Z,1032.00
2023-07-07T05:32:55.189Z,1046.00
2023-07-07T05:33:55.105Z,1039.00
2023-07-07T05:34:55.128Z,1027.00
2023-07-07T05:35:55.129Z,1027.00
2023-07-07T05:36:55.140Z,1032.00
2023-07-07T05:37:55.118Z,1043.00
2023-07-07T05:38:55.150Z,1034.00
2023-07-07T05:39:55.132Z,1026.00
2023-07-07T05:40:55.123Z,1017.00
2023-07-07T05:41:55.149Z,1021.00
2023-07-07T05:42:55.156Z,1027.00
2023-07-07T05:43:55.133Z,1014.00
2023-07-07T05:44:55.153Z,1021.00
2023-07-07T05:45:55.339Z,1022.00
2023-07-07T05:46:55.161Z,1019.00
2023-07-07T05:47:55.191Z,1021.00
2023-07-07T05:48:55.168Z,1018.00
2023-07-07T05:49:55.207Z,1009.00
2023-07-07T05:50:55.273Z,1015.00
2023-07-07T05:51:55.222Z,1017.00
2023-07-07T05:52:55.246Z,1021.00
2023-07-07T05:53:55.226Z,1027.00
2023-07-07T05:54:55.219Z,1042.00
2023-07-07T05:55:55.257Z,1042.00
2023-07-07T05:56:55.224Z,1052.00
2023-07-07T05:57:55.218Z,1039.00
2023-07-07T05:58:55.238Z,1050.00
2023-07-07T05:59:55.212Z,1050.00
2023-07-07T06:00:55.353Z,1058.00
2023-07-07T06:01:55.244Z,1073.00
2023-07-07T06:02:55.275Z,1057.00
2023-07-07T06:03:55.258Z,1059.00
2023-07-07T06:04:55.290Z,1072.00
2023-07-07T06:05:55.310Z,1081.00
2023-07-07T06:06:55.363Z,1083.00
2023-07-07T06:07:55.455Z,1079.00
2023-07-07T06:08:55.459Z,1098.00
2023-07-07T06:09:55.507Z,1111.00
2023-07-07T06:10:55.673Z,1101.00
2023-07-07T06:11:55.629Z,1132.00
2023-07-07T06:12:55.687Z,1140.00
2023-07-07T06:13:55.780Z,1158.00
2023-07-07T06:14:55.805Z,1158.00
2023-07-07T06:15:55.887Z,1194.00
2023-07-07T06:16:55.927Z,1227.00
2023-07-07T06:17:55.980Z,1264.00
2023-07-07T06:18:56.005Z,1294.00
2023-07-07T06:19:56.059Z,1322.00
2023-07-07T06:20:56.429Z,1268.00
2023-07-07T06:21:56.187Z,1369.00
2023-07-07T06:22:56.268Z,1391.00
2023-07-07T06:23:56.285Z,1403.00
2023-07-07T06:24:56.379Z,1423.00
2023-07-07T06:25:56.431Z,1424.00
2023-07-07T06:26:56.498Z,1422.00
2023-07-07T06:27:56.553Z,1411.00
2023-07-07T06:28:56.613Z,1408.00
2023-07-07T06:29:56.657Z,1394.00
2023-07-07T06:30:57.040Z,1385.00
2023-07-07T06:31:56.847Z,1352.00
2023-07-07T06:32:56.881Z,1342.00
2023-07-07T06:33:56.922Z,1337.00
2023-07-07T06:34:56.974Z,1329.00
2023-07-07T06:35:57.013Z,1318.00
2023-07-07T06:36:57.082Z,1301.00
2023-07-07T06:37:57.175Z,1294.00
2023-07-07T06:38:57.237Z,1290.00
2023-07-07T06:39:57.279Z,1288.00
2023-07-07T06:40:57.467Z,1290.00
2023-07-07T06:41:57.418Z,1269.00
2023-07-07T06:42:57.464Z,1249.00
2023-07-07T06:43:57.533Z,1227.00
2023-07-07T06:44:57.574Z,1212.00
2023-07-07T06:45:57.660Z,1199.00
2023-07-07T06:46:57.744Z,1189.00
2023-07-07T06:47:57.831Z,1175.00
2023-07-07T06:48:57.800Z,1152.00
2023-07-07T06:49:57.816Z,1109.00
2023-07-07T06:50:58.148Z,1108.00
2023-07-07T06:51:57.967Z,1115.00
2023-07-07T06:52:57.999Z,1106.00
2023-07-07T06:53:57.976Z,1091.00
2023-07-07T06:54:58.014Z,1098.00
2023-07-07T06:55:58.043Z,1095.00
2023-07-07T06:56:58.086Z,1095.00
2023-07-07T06:57:58.146Z,1092.00
2023-07-07T06:58:58.162Z,1098.00
2023-07-07T06:59:58.255Z,1095.00
2023-07-07T07:00:58.573Z,1073.00
2023-07-07T07:01:58.308Z,1042.00
2023-07-07T07:02:58.449Z,1015.00
2023-07-07T07:03:58.458Z,1017.00
2023-07-07T07:04:58.457Z,1019.00
2023-07-07T07:05:58.503Z,1007.00
2023-07-07T07:06:58.534Z,1012.00
2023-07-07T07:07:58.578Z,1017.00
2023-07-07T07:08:58.611Z,1010.00
2023-07-07T07:09:58.657Z,1026.00
2023-07-07T07:10:58.907Z,1028.00
2023-07-07T07:11:58.700Z,1026.00
2023-07-07T07:12:58.733Z,1028.00
2023-07-07T07:13:58.889Z,1026.00
2023-07-07T07:14:58.817Z,998.00
2023-07-07T07:15:58.870Z,960.00
2023-07-07T07:16:58.916Z,969.00
2023-07-07T07:17:58.995Z,965.00
2023-07-07T07:18:59.596Z,972.00
2023-07-07T07:19:58.977Z,971.00
2023-07-07T07:20:59.206Z,985.00
2023-07-07T07:21:59.131Z,1009.00
2023-07-07T07:22:59.200Z,984.00
2023-07-07T07:23:59.219Z,994.00
2023-07-07T07:24:59.308Z,991.00
2023-07-07T07:25:59.321Z,1003.00
2023-07-07T07:26:59.336Z,925.00
2023-07-07T07:27:59.408Z,871.00
2023-07-07T07:28:59.466Z,797.00
2023-07-07T07:29:59.405Z,766.00
2023-07-07T07:30:59.720Z,723.00
2023-07-07T07:31:59.462Z,713.00
2023-07-07T07:32:59.435Z,723.00
2023-07-07T07:33:59.401Z,753.00
2023-07-07T07:34:59.418Z,765.00
2023-07-07T07:35:59.436Z,799.00
2023-07-07T07:36:59.396Z,832.00
2023-07-07T07:37:59.429Z,854.00
2023-07-07T07:38:59.437Z,888.00
2023-07-07T07:39:59.441Z,926.00
2023-07-07T07:40:59.709Z,955.00
2023-07-07T07:41:59.537Z,903.00
2023-07-07T07:42:59.542Z,887.00
2023-07-07T07:43:59.567Z,919.00
2023-07-07T07:44:59.630Z,940.00
2023-07-07T07:45:59.674Z,960.00
2023-07-07T07:46:59.716Z,953.00
2023-07-07T07:47:59.852Z,964.00
2023-07-07T07:48:59.806Z,979.00
2023-07-07T07:49:59.975Z,997.00
2023-07-07T07:51:00.271Z,1025.00
2023-07-07T07:52:00.001Z,1010.00
2023-07-07T07:53:00.092Z,1002.00
2023-07-07T07:54:00.145Z,1008.00
2023-07-07T07:55:00.251Z,1015.00
2023-07-07T07:56:00.243Z,964.00
2023-07-07T07:57:00.289Z,946.00
2023-07-07T07:58:00.337Z,963.00
2023-07-07T07:59:00.400Z,970.00
2023-07-07T08:00:00.454Z,985.00
2023-07-07T08:01:00.673Z,1001.00
2023-07-07T08:02:00.641Z,1018.00
2023-07-07T08:03:00.684Z,1018.00
2023-07-07T08:04:00.869Z,1021.00
2023-07-07T08:05:00.762Z,1022.00
2023-07-07T08:06:00.772Z,1040.00
2023-07-07T08:07:00.872Z,1041.00
2023-07-07T08:08:00.896Z,1050.00
2023-07-07T08:09:00.948Z,1032.00
2023-07-07T08:10:01.786Z,1009.00
2023-07-07T08:11:10.507Z,1003.00
2023-07-07T08:12:02.035Z,1004.00
2023-07-07T08:13:01.045Z,1010.00
2023-07-07T08:14:01.076Z,1025.00
2023-07-07T08:15:00.997Z,1053.00
2023-07-07T08:16:01.235Z,1081.00
2023-07-07T08:17:01.004Z,1074.00
2023-07-07T08:18:01.053Z,1085.00
2023-07-07T08:19:00.979Z,1073.00
2023-07-07T08:20:00.971Z,1070.00
2023-07-07T08:21:01.143Z,1050.00
2023-07-07T08:22:00.957Z,1047.00
2023-07-07T08:23:00.998Z,1061.00
2023-07-07T08:24:00.999Z,1052.00
2023-07-07T08:25:01.024Z,1073.00
2023-07-07T08:27:38.380Z,1041.00
2023-07-07T08:29:01.050Z,1043.00
2023-07-07T08:30:01.060Z,1047.00
2023-07-07T08:31:01.259Z,1054.00
2023-07-07T08:32:01.043Z,1029.00
2023-07-07T08:33:01.039Z,1048.00
2023-07-07T08:34:02.717Z,1046.00
2023-07-07T08:35:01.010Z,1021.00
2023-07-07T08:36:01.182Z,977.00
2023-07-07T08:37:00.984Z,1002.00
2023-07-07T08:38:00.986Z,1000.00
2023-07-07T08:39:00.998Z,1035.00
2023-07-07T08:40:00.953Z,964.00
2023-07-07T08:41:01.093Z,984.00
2023-07-07T08:42:00.972Z,964.00
2023-07-07T08:43:00.935Z,929.00
2023-07-07T08:44:00.932Z,976.00
2023-07-07T08:45:00.980Z,1002.00
2023-07-07T08:46:00.980Z,939.00
2023-07-07T08:47:01.037Z,953.00
2023-07-07T08:48:01.061Z,960.00
2023-07-07T08:49:01.097Z,984.00
2023-07-07T08:50:06.626Z,1011.00
2023-07-07T08:51:02.155Z,1012.00
2023-07-07T08:52:01.133Z,1012.00
2023-07-07T08:53:01.174Z,1015.00
2023-07-07T08:54:13.361Z,1024.00
2023-07-07T08:55:02.133Z,1012.00
2023-07-07T08:56:01.110Z,1014.00
2023-07-07T08:57:01.099Z,1018.00
2023-07-07T08:58:01.108Z,1012.00
2023-07-07T08:59:01.170Z,1019.00
2023-07-07T09:00:01.052Z,1005.00
2023-07-07T09:01:01.119Z,974.00
2023-07-07T09:02:01.075Z,975.00
2023-07-07T09:03:01.114Z,981.00
2023-07-07T09:04:01.700Z,1005.00
2023-07-07T09:05:01.190Z,994.00
2023-07-07T09:06:01.017Z,1007.00
2023-07-07T09:07:01.025Z,985.00
2023-07-07T09:08:01.005Z,985.00
2023-07-07T09:09:01.084Z,978.00
2023-07-07T09:10:01.012Z,984.00
2023-07-07T09:11:01.268Z,1033.00
2023-07-07T09:12:01.042Z,1017.00
2023-07-07T09:13:01.092Z,1011.00
2023-07-07T09:14:01.164Z,994.00
2023-07-07T09:15:01.129Z,974.00
2023-07-07T09:16:01.336Z,963.00
2023-07-07T09:17:01.260Z,980.00
2023-07-07T09:18:01.271Z,975.00
2023-07-07T09:19:01.264Z,981.00
2023-07-07T09:20:01.310Z,949.00
2023-07-07T09:21:01.543Z,930.00
2023-07-07T09:22:01.314Z,926.00
2023-07-07T09:23:01.376Z,954.00
2023-07-07T09:24:01.408Z,948.00
2023-07-07T09:25:01.420Z,964.00
2023-07-07T09:26:01.442Z,974.00
2023-07-07T09:27:01.485Z,990.00
2023-07-07T09:28:01.505Z,997.00
2023-07-07T09:29:01.512Z,984.00
2023-07-07T09:30:01.591Z,991.00
2023-07-07T09:31:01.774Z,979.00
2023-07-07T09:32:01.667Z,979.00
2023-07-07T09:33:01.701Z,989.00
2023-07-07T09:34:01.679Z,1007.00
2023-07-07T09:35:01.694Z,1007.00
2023-07-07T09:36:01.708Z,994.00
2023-07-07T09:37:01.732Z,996.00
2023-07-07T09:38:01.741Z,1002.00
2023-07-07T09:39:01.776Z,1001.00
2023-07-07T09:40:02.069Z,998.00
2023-07-07T09:41:01.848Z,962.00
2023-07-07T09:42:01.867Z,1002.00
2023-07-07T09:43:01.903Z,995.00
2023-07-07T09:44:01.911Z,988.00
2023-07-07T09:45:01.928Z,1005.00
2023-07-07T09:46:01.958Z,979.00
2023-07-07T09:47:01.950Z,1003.00
2023-07-07T09:48:02.046Z,981.00
2023-07-07T09:49:01.999Z,1027.00
2023-07-07T09:50:02.035Z,984.00
2023-07-07T09:51:02.054Z,1002.00
2023-07-07T09:52:02.070Z,1003.00
2023-07-07T09:53:13.016Z,1001.00
2023-07-07T09:54:03.071Z,1001.00
2023-07-07T09:55:02.048Z,990.00
2023-07-07T09:56:02.214Z,986.00
2023-07-07T09:57:02.042Z,950.00
2023-07-07T09:58:02.033Z,1001.00
2023-07-07T09:59:02.034Z,979.00
2023-07-07T10:00:02.083Z,983.00
2023-07-07T10:01:01.989Z,972.00
2023-07-07T10:02:02.111Z,955.00
2023-07-07T10:03:02.048Z,958.00
2023-07-07T10:04:02.041Z,948.00
2023-07-07T10:05:02.018Z,994.00
2023-07-07T10:06:02.448Z,997.00
2023-07-07T10:07:01.957Z,984.00
2023-07-07T10:08:01.962Z,952.00
2023-07-07T10:09:01.950Z,971.00
2023-07-07T10:10:01.944Z,964.00
2023-07-07T10:11:19.678Z,968.00
2023-07-07T10:12:20.051Z,969.00
2023-07-07T10:13:02.931Z,970.00
2023-07-07T10:14:02.010Z,974.00
2023-07-07T10:15:01.891Z,984.00
2023-07-07T10:16:02.140Z,988.00
2023-07-07T10:17:01.887Z,992.00
2023-07-07T10:18:01.920Z,982.00
2023-07-07T10:19:01.873Z,957.00
2023-07-07T10:20:01.909Z,981.00
2023-07-07T10:21:01.849Z,989.00
2023-07-07T10:22:01.851Z,977.00
2023-07-07T10:23:01.834Z,965.00
2023-07-07T10:24:04.324Z,958.00
2023-07-07T10:25:01.847Z,959.00
2023-07-07T10:26:02.097Z,960.00
2023-07-07T10:27:01.818Z,963.00
2023-07-07T10:28:01.814Z,974.00
2023-07-07T10:29:01.822Z,978.00
2023-07-07T10:30:01.815Z,974.00
2023-07-07T10:31:02.103Z,986.00
2023-07-07T10:32:01.858Z,1001.00
2023-07-07T10:33:01.828Z,984.00
2023-07-07T10:34:01.768Z,982.00
2023-07-07T10:35:01.799Z,977.00
2023-07-07T10:36:02.932Z,978.00
2023-07-07T10:37:01.787Z,970.00
2023-07-07T10:38:01.737Z,956.00
2023-07-07T10:39:01.747Z,942.00
2023-07-07T10:40:01.759Z,958.00
2023-07-07T10:41:01.829Z,957.00
2023-07-07T10:42:01.717Z,953.00
2023-07-07T10:43:01.719Z,942.00
2023-07-07T10:44:01.738Z,935.00
2023-07-07T10:45:01.791Z,946.00
2023-07-07T10:46:01.773Z,951.00
2023-07-07T10:47:01.694Z,917.00
2023-07-07T10:48:03.108Z,889.00
2023-07-07T10:49:01.679Z,873.00
2023-07-07T10:50:01.656Z,863.00
2023-07-07T10:51:01.990Z,866.00
2023-07-07T10:52:02.018Z,891.00
2023-07-07T10:54:02.935Z,929.00
2023-07-07T10:55:01.833Z,929.00
2023-07-07T10:56:01.878Z,934.00
2023-07-07T10:57:01.878Z,943.00
2023-07-07T10:58:02.496Z,957.00
2023-07-07T10:59:01.893Z,955.00
2023-07-07T11:00:01.946Z,972.00
2023-07-07T11:01:02.306Z,977.00
2023-07-07T11:02:02.151Z,975.00
2023-07-07T11:03:03.013Z,984.00
2023-07-07T11:04:02.175Z,987.00
2023-07-07T11:05:02.086Z,988.00
2023-07-07T11:07:03.121Z,1013.00
2023-07-07T11:08:02.094Z,1015.00
2023-07-07T11:09:02.092Z,1022.00
2023-07-07T11:10:03.460Z,1026.00
2023-07-07T11:11:02.081Z,1042.00
2023-07-07T11:12:02.054Z,1039.00
2023-07-07T11:13:02.111Z,1048.00
2023-07-07T11:14:02.239Z,1052.00
2023-07-07T11:15:02.027Z,1061.00
2023-07-07T11:16:02.064Z,1056.00
2023-07-07T11:17:02.138Z,1072.00
2023-07-07T11:18:02.100Z,1068.00
2023-07-07T11:19:02.038Z,1079.00
2023-07-07T11:20:02.040Z,1071.00
2023-07-07T11:21:02.018Z,1072.00
2023-07-07T11:22:02.020Z,1029.00
2023-07-07T11:23:01.980Z,1031.00
2023-07-07T11:24:01.994Z,1041.00
2023-07-07T11:25:02.080Z,1045.00
2023-07-07T11:26:02.015Z,1055.00
2023-07-07T11:27:02.015Z,1067.00
2023-07-07T11:28:02.325Z,1076.00
2023-07-07T11:29:02.094Z,1084.00
2023-07-07T11:30:02.156Z,1093.00
2023-07-07T11:31:02.542Z,1094.00
2023-07-07T11:32:02.176Z,1106.00
2023-07-07T11:33:02.235Z,1097.00
2023-07-07T11:34:02.188Z,1090.00
2023-07-07T11:35:02.203Z,1060.00
2023-07-07T11:36:02.228Z,1044.00
2023-07-07T11:37:02.257Z,1064.00
2023-07-07T11:38:02.285Z,1079.00
2023-07-07T11:39:02.357Z,1086.00
2023-07-07T11:40:02.293Z,1102.00
2023-07-07T11:41:02.398Z,1084.00
2023-07-07T11:42:02.339Z,1072.00
2023-07-07T11:43:02.370Z,1087.00
2023-07-07T11:44:02.374Z,1099.00
2023-07-07T11:45:02.410Z,1102.00
2023-07-07T11:46:02.438Z,1118.00
2023-07-07T11:47:02.453Z,1118.00
2023-07-07T11:48:02.484Z,1125.00
2023-07-07T11:49:02.469Z,1135.00
2023-07-07T11:50:02.496Z,1131.00
2023-07-07T11:51:02.557Z,1130.00
2023-07-07T11:52:02.529Z,1130.00
2023-07-07T11:53:02.535Z,1124.00
2023-07-07T11:54:02.567Z,1112.00
2023-07-07T11:55:02.578Z,1113.00
2023-07-07T11:56:02.664Z,1118.00
2023-07-07T11:57:02.612Z,1117.00
2023-07-07T11:58:02.648Z,1079.00
2023-07-07T11:59:02.647Z,1088.00
2023-07-07T12:00:02.643Z,1092.00
2023-07-07T12:01:02.751Z,1105.00
2023-07-07T12:02:02.679Z,1111.00
2023-07-07T12:03:02.807Z,1100.00
2023-07-07T12:04:02.832Z,1108.00
2023-07-07T12:05:02.938Z,1118.00
2023-07-07T12:06:03.095Z,1129.00
2023-07-07T12:07:02.728Z,1140.00
2023-07-07T12:08:02.766Z,1136.00
2023-07-07T12:09:02.768Z,1118.00
2023-07-07T12:10:02.764Z,1111.00
2023-07-07T12:11:02.784Z,1124.00
2023-07-07T12:12:02.773Z,1112.00
2023-07-07T12:13:02.875Z,1131.00
2023-07-07T12:14:02.918Z,1093.00
2023-07-07T12:15:04.042Z,1095.00